createdAt,value
2022-10-23T00:01:00.279Z,14.67
2022-10-23T00:03:27.145Z,14.69
2022-10-23T00:05:53.708Z,14.66
2022-10-23T00:08:20.221Z,14.68
2022-10-23T00:10:46.803Z,14.68
2022-10-23T00:13:13.377Z,14.67
2022-10-23T00:15:39.991Z,14.67
2022-10-23T00:18:06.566Z,14.66
2022-10-23T00:20:33.101Z,14.65
2022-10-23T00:22:59.647Z,14.64
2022-10-23T00:25:26.208Z,14.63
2022-10-23T00:27:52.723Z,14.61
2022-10-23T00:30:19.300Z,14.61
2022-10-23T00:32:45.850Z,14.63
2022-10-23T00:35:12.404Z,14.63
2022-10-23T00:37:38.957Z,14.64
2022-10-23T00:40:06.256Z,14.62
2022-10-23T00:42:32.918Z,14.60
2022-10-23T00:45:33.513Z,14.55
2022-10-23T00:48:01.886Z,14.57
2022-10-23T00:50:31.482Z,14.55
2022-10-23T00:53:00.622Z,14.54
2022-10-23T00:55:27.960Z,14.54
2022-10-23T00:57:54.907Z,14.52
2022-10-23T01:00:28.072Z,14.51
2022-10-23T01:02:56.483Z,14.48
2022-10-23T01:05:30.400Z,14.46
2022-10-23T01:08:06.312Z,14.42
2022-10-23T01:10:56.996Z,14.39
2022-10-23T01:13:29.565Z,14.40
2022-10-23T01:16:16.761Z,14.39
2022-10-23T01:18:51.216Z,14.37
2022-10-23T01:21:29.248Z,14.38
2022-10-23T01:24:20.555Z,14.35
2022-10-23T01:27:14.446Z,14.35
2022-10-23T01:29:50.415Z,14.35
2022-10-23T01:32:19.982Z,14.35
2022-10-23T01:34:52.639Z,14.34
2022-10-23T01:37:25.273Z,14.34
2022-10-23T01:39:55.441Z,14.34
2022-10-23T01:42:28.961Z,14.32
2022-10-23T01:45:09.638Z,14.32
2022-10-23T01:47:37.092Z,14.31
2022-10-23T01:50:06.275Z,14.33
2022-10-23T01:52:32.864Z,14.34
2022-10-23T01:55:01.752Z,14.33
2022-10-23T01:57:31.187Z,14.34
2022-10-23T02:00:03.735Z,14.34
2022-10-23T02:02:33.781Z,14.33
2022-10-23T02:05:12.051Z,14.30
2022-10-23T02:07:38.780Z,14.30
2022-10-23T02:10:08.152Z,14.28
2022-10-23T02:13:04.349Z,14.25
2022-10-23T02:15:45.342Z,14.24
2022-10-23T02:18:21.085Z,14.21
2022-10-23T02:21:16.480Z,14.15
2022-10-23T02:23:51.404Z,14.16
2022-10-23T02:26:34.350Z,14.12
2022-10-23T02:29:18.216Z,14.10
2022-10-23T02:31:45.272Z,14.08
2022-10-23T02:34:11.874Z,14.07
2022-10-23T02:36:38.400Z,14.05
2022-10-23T02:39:05.758Z,14.05
2022-10-23T02:41:51.257Z,14.00
2022-10-23T02:44:23.692Z,14.00
2022-10-23T02:46:52.819Z,13.99
2022-10-23T02:49:26.532Z,13.96
2022-10-23T02:52:01.678Z,13.94
2022-10-23T02:54:37.074Z,13.90
2022-10-23T02:57:12.646Z,13.86
2022-10-23T03:00:00.860Z,13.78
2022-10-23T03:02:33.134Z,13.78
2022-10-23T03:05:01.676Z,13.76
2022-10-23T03:07:28.384Z,13.73
2022-10-23T03:09:54.889Z,13.67
2022-10-23T03:12:21.445Z,13.63
2022-10-23T03:14:48.012Z,13.60
2022-10-23T03:17:14.907Z,13.54
2022-10-23T03:19:41.407Z,13.53
2022-10-23T03:22:07.987Z,13.51
2022-10-23T03:24:34.517Z,13.50
2022-10-23T03:27:00.990Z,13.49
2022-10-23T03:29:27.524Z,13.49
2022-10-23T03:31:55.581Z,13.49
2022-10-23T03:34:22.193Z,13.49
2022-10-23T03:36:48.698Z,13.49
2022-10-23T03:39:15.248Z,13.52
2022-10-23T03:41:41.784Z,13.53
2022-10-23T03:44:08.580Z,13.52
2022-10-23T03:46:35.143Z,13.52
2022-10-23T03:49:01.657Z,13.52
2022-10-23T03:51:28.302Z,13.52
2022-10-23T03:53:54.965Z,13.52
2022-10-23T03:56:21.599Z,13.54
2022-10-23T03:58:48.243Z,13.57
2022-10-23T04:01:15.117Z,13.59
2022-10-23T04:03:41.649Z,13.60
2022-10-23T04:06:08.230Z,13.63
2022-10-23T04:08:34.810Z,13.67
2022-10-23T04:11:01.335Z,13.67
2022-10-23T04:13:27.836Z,13.69
2022-10-23T04:15:54.390Z,13.68
2022-10-23T04:18:21.002Z,13.67
2022-10-23T04:20:49.201Z,13.68
2022-10-23T04:23:16.076Z,13.68
2022-10-23T04:25:42.698Z,13.67
2022-10-23T04:28:09.266Z,13.64
2022-10-23T04:30:35.871Z,13.63
2022-10-23T04:33:02.455Z,13.61
2022-10-23T04:35:29.028Z,13.60
2022-10-23T04:37:55.553Z,13.57
2022-10-23T04:40:22.082Z,13.55
2022-10-23T04:42:48.634Z,13.53
2022-10-23T04:45:15.272Z,13.51
2022-10-23T04:47:41.797Z,13.47
2022-10-23T04:50:08.302Z,13.48
2022-10-23T04:52:34.815Z,13.48
2022-10-23T04:55:01.343Z,13.44
2022-10-23T04:57:27.887Z,13.42
2022-10-23T04:59:54.392Z,13.41
2022-10-23T05:02:20.947Z,13.78
2022-10-23T05:04:47.464Z,14.23
2022-10-23T05:07:14.036Z,14.59
2022-10-23T05:09:40.576Z,14.87
2022-10-23T05:12:07.081Z,15.12
2022-10-23T05:14:33.614Z,15.27
2022-10-23T05:17:07.829Z,15.47
2022-10-23T05:19:41.732Z,15.67
2022-10-23T05:22:09.696Z,15.79
2022-10-23T05:24:36.351Z,15.81
2022-10-23T05:27:03.012Z,15.83
2022-10-23T05:29:29.601Z,15.88
2022-10-23T05:32:00.874Z,15.98
2022-10-23T05:34:30.042Z,16.05
2022-10-23T05:36:56.896Z,16.09
2022-10-23T05:39:23.673Z,16.13
2022-10-23T05:41:51.253Z,16.13
2022-10-23T05:44:17.803Z,16.07
2022-10-23T05:46:44.524Z,16.01
2022-10-23T05:49:11.023Z,15.95
2022-10-23T05:51:38.767Z,15.89
2022-10-23T05:54:08.308Z,15.83
2022-10-23T05:56:41.599Z,15.81
2022-10-23T05:59:08.966Z,15.82
2022-10-23T06:01:36.266Z,15.86
2022-10-23T06:04:04.202Z,15.84
2022-10-23T06:06:30.867Z,15.85
2022-10-23T06:08:57.474Z,15.89
2022-10-23T06:11:24.051Z,15.87
2022-10-23T06:13:50.741Z,15.91
2022-10-23T06:16:20.402Z,15.88
2022-10-23T06:18:47.854Z,15.90
2022-10-23T06:21:15.395Z,15.88
2022-10-23T06:23:43.768Z,15.86
2022-10-23T06:26:12.647Z,15.85
2022-10-23T06:28:40.238Z,15.82
2022-10-23T06:31:08.322Z,15.82
2022-10-23T06:33:35.565Z,15.79
2022-10-23T06:36:03.636Z,15.82
2022-10-23T06:38:36.585Z,15.93
2022-10-23T06:41:04.151Z,16.00
2022-10-23T06:43:30.685Z,16.05
2022-10-23T06:46:00.981Z,16.02
2022-10-23T06:48:27.518Z,16.06
2022-10-23T06:50:54.172Z,16.09
2022-10-23T06:53:20.755Z,16.17
2022-10-23T06:55:50.073Z,16.22
2022-10-23T06:58:19.452Z,16.26
2022-10-23T07:00:46.028Z,16.41
2022-10-23T07:03:13.798Z,16.43
2022-10-23T07:05:41.055Z,16.43
2022-10-23T07:08:07.593Z,16.26
2022-10-23T07:10:34.602Z,16.04
2022-10-23T07:13:01.453Z,15.86
2022-10-23T07:15:28.085Z,15.75
2022-10-23T07:17:55.099Z,15.66
2022-10-23T07:20:22.309Z,15.55
2022-10-23T07:22:56.779Z,15.49
2022-10-23T07:25:25.911Z,15.51
2022-10-23T07:27:55.380Z,15.52
2022-10-23T07:30:22.037Z,15.50
2022-10-23T07:32:48.574Z,15.48
2022-10-23T07:37:47.141Z,15.32
2022-10-23T07:40:13.891Z,15.18
2022-10-23T07:42:40.718Z,15.09
2022-10-23T07:45:08.731Z,15.02
2022-10-23T07:47:35.432Z,15.00
2022-10-23T07:50:01.964Z,14.97
2022-10-23T07:52:32.019Z,14.97
2022-10-23T07:55:01.939Z,14.94
2022-10-23T07:57:28.458Z,14.94
2022-10-23T07:59:55.038Z,14.92
2022-10-23T08:02:21.734Z,14.95
2022-10-23T08:04:51.120Z,14.99
2022-10-23T08:07:17.720Z,15.01
2022-10-23T08:09:44.285Z,15.04
2022-10-23T08:12:10.992Z,15.08
2022-10-23T08:14:37.601Z,15.12
2022-10-23T08:17:05.470Z,15.16
2022-10-23T08:19:32.329Z,15.16
2022-10-23T08:21:58.852Z,15.18
2022-10-23T08:24:25.442Z,15.20
2022-10-23T08:26:51.963Z,15.28
2022-10-23T08:29:18.552Z,15.35
2022-10-23T08:31:45.169Z,15.41
2022-10-23T08:34:11.805Z,15.44
2022-10-23T08:36:39.358Z,15.46
2022-10-23T08:39:06.619Z,15.48
2022-10-23T08:41:47.936Z,15.50
2022-10-23T08:44:32.810Z,15.53
2022-10-23T08:47:06.722Z,15.56
2022-10-23T08:49:47.571Z,15.60
2022-10-23T08:52:35.415Z,15.63
2022-10-23T08:55:15.136Z,15.72
2022-10-23T08:57:51.741Z,15.77
2022-10-23T09:00:18.739Z,15.83
2022-10-23T09:02:48.253Z,15.85
2022-10-23T09:05:16.562Z,15.88
2022-10-23T09:08:09.777Z,15.90
2022-10-23T09:10:55.072Z,15.97
2022-10-23T09:13:48.212Z,16.04
2022-10-23T09:16:25.513Z,16.09
2022-10-23T09:18:56.212Z,16.18
2022-10-23T09:21:30.327Z,16.24
2022-10-23T09:23:57.020Z,16.31
2022-10-23T09:26:23.656Z,16.39
2022-10-23T09:28:55.326Z,16.49
2022-10-23T09:31:21.839Z,16.62
2022-10-23T09:34:01.786Z,16.72
2022-10-23T09:36:29.553Z,16.78
2022-10-23T09:38:58.963Z,16.78
2022-10-23T09:41:37.132Z,16.82
2022-10-23T09:44:15.838Z,16.90
2022-10-23T09:46:45.109Z,16.98
2022-10-23T09:49:26.996Z,17.02
2022-10-23T09:52:01.954Z,17.08
2022-10-23T09:54:32.186Z,17.25
2022-10-23T09:57:05.723Z,17.40
2022-10-23T09:59:33.958Z,17.48
2022-10-23T10:02:05.714Z,17.57
2022-10-23T10:04:40.770Z,17.68
2022-10-23T10:07:19.431Z,17.82
2022-10-23T10:09:46.359Z,17.95
2022-10-23T10:12:34.631Z,18.08
2022-10-23T10:15:28.469Z,18.20
2022-10-23T10:18:24.294Z,18.36
2022-10-23T10:21:08.891Z,18.49
2022-10-23T10:24:01.863Z,18.66
2022-10-23T10:26:51.092Z,18.80
2022-10-23T10:29:36.058Z,18.97
2022-10-23T10:32:06.030Z,19.12
2022-10-23T10:34:41.947Z,19.18
2022-10-23T10:37:48.618Z,19.26
2022-10-23T10:40:41.061Z,19.34
2022-10-23T10:43:40.535Z,19.48
2022-10-23T10:46:41.236Z,19.61
2022-10-23T10:49:16.192Z,19.72
2022-10-23T10:52:00.738Z,19.76
2022-10-23T10:54:57.628Z,19.84
2022-10-23T10:57:43.089Z,20.00
2022-10-23T11:00:15.870Z,20.20
2022-10-23T11:02:49.931Z,20.35
2022-10-23T11:05:29.331Z,20.40
2022-10-23T11:08:00.470Z,20.53
2022-10-23T11:10:28.930Z,20.65
2022-10-23T11:12:56.960Z,20.76
2022-10-23T11:15:35.283Z,20.87
2022-10-23T11:18:05.987Z,21.08
2022-10-23T11:21:00.823Z,21.29
2022-10-23T11:23:36.533Z,21.44
2022-10-23T11:26:18.824Z,21.56
2022-10-23T11:29:23.179Z,21.65
2022-10-23T11:32:05.940Z,21.74
2022-10-23T11:34:44.154Z,21.79
2022-10-23T11:37:16.663Z,21.87
2022-10-23T11:40:01.223Z,22.00
2022-10-23T11:42:49.147Z,22.18
2022-10-23T11:45:38.413Z,22.38
2022-10-23T11:48:14.064Z,22.59
2022-10-23T11:50:46.292Z,22.70
2022-10-23T11:53:24.943Z,22.71
2022-10-23T11:56:05.300Z,22.72
2022-10-23T11:58:56.440Z,22.71
2022-10-23T12:01:32.525Z,22.65
2022-10-23T12:04:25.157Z,22.67
2022-10-23T12:07:01.464Z,22.75
2022-10-23T12:09:36.118Z,22.84
2022-10-23T12:12:08.612Z,22.95
2022-10-23T12:14:49.715Z,23.08
2022-10-23T12:17:31.489Z,23.26
2022-10-23T12:20:13.330Z,23.46
2022-10-23T12:22:58.605Z,23.56
2022-10-23T12:25:34.067Z,23.70
2022-10-23T12:28:05.512Z,23.78
2022-10-23T12:31:03.329Z,23.89
2022-10-23T12:33:41.321Z,24.02
2022-10-23T12:36:31.975Z,24.14
2022-10-23T12:38:58.791Z,24.20
2022-10-23T12:41:30.941Z,24.22
2022-10-23T12:44:01.382Z,24.27
2022-10-23T12:46:41.101Z,24.35
2022-10-23T12:49:22.750Z,24.40
2022-10-23T12:52:04.373Z,24.37
2022-10-23T12:54:33.222Z,24.43
2022-10-23T12:56:59.756Z,24.45
2022-10-23T12:59:31.715Z,24.48
2022-10-23T13:01:58.390Z,24.46
2022-10-23T13:04:31.367Z,24.43
2022-10-23T13:07:03.098Z,24.47
2022-10-23T13:09:34.683Z,24.46
2022-10-23T13:12:04.882Z,24.40
2022-10-23T13:14:40.788Z,24.37
2022-10-23T13:17:12.007Z,24.36
2022-10-23T13:19:38.639Z,24.30
2022-10-23T13:22:18.572Z,24.21
2022-10-23T13:24:45.198Z,24.10
2022-10-23T13:27:34.216Z,23.94
2022-10-23T13:30:01.030Z,23.96
2022-10-23T13:32:30.373Z,24.04
2022-10-23T13:35:10.131Z,24.11
2022-10-23T13:40:25.741Z,24.07
2022-10-23T13:42:55.609Z,24.03
2022-10-23T13:45:24.744Z,24.04
2022-10-23T13:47:51.581Z,24.13
2022-10-23T13:50:19.470Z,24.20
2022-10-23T13:52:46.250Z,24.14
2022-10-23T13:55:23.513Z,24.01
2022-10-23T13:57:50.196Z,23.88
2022-10-23T14:00:17.286Z,23.72
2022-10-23T14:02:44.527Z,23.60
2022-10-23T14:05:12.214Z,23.52
2022-10-23T14:07:38.843Z,23.48
2022-10-23T14:10:05.865Z,23.41
2022-10-23T14:12:39.300Z,23.39
2022-10-23T14:15:06.705Z,23.55
2022-10-23T14:17:35.061Z,23.85
2022-10-23T14:20:04.015Z,24.21
2022-10-23T14:22:32.412Z,24.33
2022-10-23T14:24:58.953Z,24.39
2022-10-23T14:27:25.560Z,24.30
2022-10-23T14:29:52.174Z,24.14
2022-10-23T14:32:18.762Z,24.03
2022-10-23T14:34:51.428Z,23.93
2022-10-23T14:37:19.498Z,23.80
2022-10-23T14:39:50.010Z,23.64
2022-10-23T14:42:17.299Z,23.46
2022-10-23T14:44:44.050Z,23.33
2022-10-23T14:47:10.567Z,23.18
2022-10-23T14:49:37.147Z,23.06
2022-10-23T14:52:03.799Z,22.95
2022-10-23T14:54:33.050Z,22.86
2022-10-23T14:56:59.621Z,22.78
2022-10-23T14:59:26.204Z,22.70
2022-10-23T15:04:21.262Z,22.58
2022-10-23T15:06:47.828Z,22.49
2022-10-23T15:09:15.021Z,22.46
2022-10-23T15:11:41.682Z,22.40
2022-10-23T15:14:08.260Z,22.36
2022-10-23T15:16:41.321Z,22.35
2022-10-23T15:19:17.166Z,22.27
2022-10-23T15:21:46.140Z,22.23
2022-10-23T15:24:12.717Z,22.20
2022-10-23T15:26:41.792Z,22.12
2022-10-23T15:29:08.815Z,22.05
2022-10-23T15:31:37.537Z,21.98
2022-10-23T15:34:08.762Z,21.95
2022-10-23T15:36:35.470Z,21.90
2022-10-23T15:39:03.649Z,21.90
2022-10-23T15:41:32.212Z,21.84
2022-10-23T15:43:59.919Z,21.82
2022-10-23T15:46:26.535Z,21.81
2022-10-23T15:48:53.872Z,21.75
2022-10-23T15:51:20.649Z,21.68
2022-10-23T15:53:47.515Z,21.66
2022-10-23T15:56:14.083Z,21.14
2022-10-23T15:58:40.653Z,20.57
2022-10-23T16:01:07.457Z,20.23
2022-10-23T16:03:35.839Z,20.00
2022-10-23T16:06:07.307Z,19.70
2022-10-23T16:08:33.981Z,19.49
2022-10-23T16:11:00.506Z,19.31
2022-10-23T16:13:27.333Z,19.23
2022-10-23T16:15:54.389Z,19.16
2022-10-23T16:18:22.460Z,19.21
2022-10-23T16:20:51.022Z,19.29
2022-10-23T16:23:17.784Z,19.34
2022-10-23T16:25:45.972Z,19.33
2022-10-23T16:28:12.941Z,19.33
2022-10-23T16:30:43.377Z,19.38
2022-10-23T16:33:10.201Z,19.46
2022-10-23T16:35:37.332Z,19.54
2022-10-23T16:38:04.062Z,19.63
2022-10-23T16:40:31.194Z,19.68
2022-10-23T16:42:58.576Z,19.71
2022-10-23T16:45:25.164Z,19.71
2022-10-23T16:47:51.831Z,19.70
2022-10-23T16:50:18.465Z,19.68
2022-10-23T16:52:45.532Z,19.63
2022-10-23T16:55:12.370Z,19.58
2022-10-23T16:57:39.016Z,19.54
2022-10-23T17:00:07.120Z,19.51
2022-10-23T17:02:33.877Z,19.47
2022-10-23T17:05:00.557Z,19.44
2022-10-23T17:07:27.156Z,19.39
2022-10-23T17:09:53.726Z,19.31
2022-10-23T17:12:20.326Z,19.26
2022-10-23T17:14:46.862Z,19.17
2022-10-23T17:17:13.694Z,19.04
2022-10-23T17:19:46.012Z,18.90
2022-10-23T17:22:14.209Z,18.79
2022-10-23T17:24:42.415Z,18.69
2022-10-23T17:27:09.240Z,18.60
2022-10-23T17:29:36.069Z,18.49
2022-10-23T17:32:03.161Z,18.40
2022-10-23T17:34:29.717Z,18.33
2022-10-23T17:36:56.830Z,18.28
2022-10-23T17:39:26.754Z,18.22
2022-10-23T17:41:54.104Z,18.17
2022-10-23T17:44:20.881Z,18.12
2022-10-23T17:46:53.298Z,18.06
2022-10-23T17:49:20.727Z,18.00
2022-10-23T17:51:54.182Z,17.94
2022-10-23T17:54:21.218Z,17.90
2022-10-23T17:56:47.831Z,17.86
2022-10-23T17:59:16.134Z,17.84
2022-10-23T18:01:52.423Z,17.84
2022-10-23T18:04:20.962Z,17.82
2022-10-23T18:06:50.488Z,17.83
2022-10-23T18:09:17.355Z,17.82
2022-10-23T18:11:48.171Z,17.79
2022-10-23T18:14:17.124Z,17.79
2022-10-23T18:16:45.620Z,17.76
2022-10-23T18:19:12.652Z,17.72
2022-10-23T18:21:40.196Z,17.72
2022-10-23T18:24:06.823Z,17.73
2022-10-23T18:26:37.840Z,17.75
2022-10-23T18:29:07.851Z,17.70
2022-10-23T18:31:37.158Z,17.74
2022-10-23T18:34:09.081Z,17.74
2022-10-23T18:36:38.720Z,17.76
2022-10-23T18:39:06.871Z,17.83
2022-10-23T18:41:35.850Z,17.82
2022-10-23T18:44:03.094Z,17.86
2022-10-23T18:46:29.684Z,17.93
2022-10-23T18:48:56.323Z,17.95
2022-10-23T18:51:25.879Z,17.99
2022-10-23T18:53:52.924Z,17.98
2022-10-23T18:56:23.552Z,17.95
2022-10-23T18:58:51.522Z,17.90
2022-10-23T19:01:19.026Z,17.83
2022-10-23T19:03:46.286Z,17.79
2022-10-23T19:06:13.623Z,17.77
2022-10-23T19:08:42.751Z,17.74
2022-10-23T19:11:10.580Z,17.74
2022-10-23T19:13:39.189Z,17.76
2022-10-23T19:16:20.988Z,17.80
2022-10-23T19:18:51.881Z,17.83
2022-10-23T19:21:21.744Z,17.84
2022-10-23T19:23:49.254Z,17.82
2022-10-23T19:26:16.569Z,17.76
2022-10-23T19:28:46.170Z,17.72
2022-10-23T19:31:13.629Z,17.66
2022-10-23T19:33:40.291Z,17.60
2022-10-23T19:36:11.146Z,17.57
2022-10-23T19:38:41.592Z,17.52
2022-10-23T19:41:08.984Z,17.46
2022-10-23T19:43:37.757Z,17.39
2022-10-23T19:46:09.280Z,17.29
2022-10-23T19:48:42.580Z,17.14
2022-10-23T19:51:09.563Z,17.02
2022-10-23T19:53:36.493Z,16.92
2022-10-23T19:56:07.540Z,16.83
2022-10-23T19:58:34.279Z,16.71
2022-10-23T20:01:09.610Z,16.60
2022-10-23T20:03:36.274Z,16.60
2022-10-23T20:06:02.944Z,16.59
2022-10-23T20:08:32.699Z,16.69
2022-10-23T20:11:01.677Z,16.67
2022-10-23T20:13:28.353Z,16.71
2022-10-23T20:15:55.407Z,16.70
2022-10-23T20:18:22.290Z,16.66
2022-10-23T20:20:48.983Z,16.63
2022-10-23T20:23:15.596Z,16.56
2022-10-23T20:25:42.192Z,16.52
2022-10-23T20:28:11.479Z,16.50
2022-10-23T20:30:41.954Z,16.43
2022-10-23T20:33:08.611Z,16.47
2022-10-23T20:35:42.719Z,16.52
2022-10-23T20:38:09.939Z,16.55
2022-10-23T20:40:36.776Z,16.56
2022-10-23T20:43:03.618Z,16.56
2022-10-23T20:45:30.166Z,16.59
2022-10-23T20:47:56.985Z,16.58
2022-10-23T20:50:23.916Z,16.52
2022-10-23T20:52:50.849Z,16.49
2022-10-23T20:55:18.095Z,16.45
2022-10-23T20:57:45.062Z,16.39
2022-10-23T21:00:12.330Z,16.38
2022-10-23T21:02:38.979Z,16.42
2022-10-23T21:05:06.221Z,16.45
2022-10-23T21:07:32.777Z,16.49
2022-10-23T21:09:59.413Z,16.58
2022-10-23T21:12:25.936Z,16.61
2022-10-23T21:14:53.602Z,16.64
2022-10-23T21:17:20.462Z,16.62
2022-10-23T21:19:47.500Z,16.59
2022-10-23T21:22:14.082Z,16.56
2022-10-23T21:24:40.638Z,16.57
2022-10-23T21:27:07.260Z,16.56
2022-10-23T21:29:33.795Z,16.57
2022-10-23T21:32:01.636Z,16.54
2022-10-23T21:34:29.130Z,16.50
2022-10-23T21:39:44.067Z,16.60
2022-10-23T21:42:12.510Z,16.55
2022-10-23T21:44:39.179Z,16.51
2022-10-23T21:47:05.761Z,16.45
2022-10-23T21:49:32.421Z,16.45
2022-10-23T21:51:58.923Z,16.43
2022-10-23T21:54:25.531Z,16.37
2022-10-23T21:56:53.884Z,16.32
2022-10-23T21:59:24.316Z,16.26
2022-10-23T22:01:51.836Z,16.20
2022-10-23T22:04:19.896Z,16.14
2022-10-23T22:06:49.614Z,16.08
2022-10-23T22:09:19.796Z,16.03
2022-10-23T22:11:46.946Z,16.02
2022-10-23T22:14:13.418Z,16.02
2022-10-23T22:16:41.997Z,16.01
2022-10-23T22:19:13.527Z,16.00
2022-10-23T22:21:40.497Z,15.92
2022-10-23T22:24:07.765Z,15.87
2022-10-23T22:26:40.533Z,15.85
2022-10-23T22:29:12.584Z,15.80
2022-10-23T22:31:43.003Z,15.76
2022-10-23T22:34:26.677Z,15.74
2022-10-23T22:37:01.810Z,15.67
2022-10-23T22:39:28.374Z,15.63
2022-10-23T22:41:58.197Z,15.59
2022-10-23T22:44:24.754Z,15.59
2022-10-23T22:46:51.296Z,15.58
2022-10-23T22:49:17.838Z,15.57
2022-10-23T22:51:44.341Z,15.58
2022-10-23T22:54:10.867Z,15.63
2022-10-23T22:56:37.419Z,15.72
2022-10-23T22:59:04.794Z,15.74
2022-10-23T23:01:36.400Z,15.74
2022-10-23T23:04:19.483Z,15.76
2022-10-23T23:06:49.734Z,15.78
2022-10-23T23:09:18.110Z,15.80
2022-10-23T23:11:51.855Z,15.83
2022-10-23T23:14:23.280Z,15.83
2022-10-23T23:16:51.129Z,15.73
2022-10-23T23:19:17.628Z,15.74
2022-10-23T23:21:44.261Z,15.79
2022-10-23T23:24:12.296Z,15.90
2022-10-23T23:26:39.137Z,15.94
2022-10-23T23:29:06.157Z,15.92
2022-10-23T23:31:32.704Z,15.92
2022-10-23T23:33:59.412Z,15.86
2022-10-23T23:36:28.162Z,15.79
2022-10-23T23:38:57.242Z,15.77
2022-10-23T23:41:25.138Z,15.74
2022-10-23T23:43:53.521Z,15.68
2022-10-23T23:46:20.163Z,15.64
2022-10-23T23:48:49.928Z,15.61
2022-10-23T23:51:19.475Z,15.55
2022-10-23T23:53:46.629Z,15.57
2022-10-23T23:56:13.909Z,15.56
2022-10-23T23:58:40.450Z,15.56
